sensor_id;sensor_type;location;lat;lon;timestamp;temperature;humidity
63976;DHT22;50167;47.958;21.780;2023-05-07T00:00:58;21.18;62.07
63976;DHT22;50167;47.958;21.780;2023-05-07T00:03:28;21.44;60.73
63976;DHT22;50167;47.958;21.780;2023-05-07T00:05:54;21.68;60.15
63976;DHT22;50167;47.958;21.780;2023-05-07T00:08:21;21.88;59.49
63976;DHT22;50167;47.958;21.780;2023-05-07T00:10:48;21.45;58.94
63976;DHT22;50167;47.958;21.780;2023-05-07T00:13:14;20.45;60.96
63976;DHT22;50167;47.958;21.780;2023-05-07T00:15:41;19.60;63.07
63976;DHT22;50167;47.958;21.780;2023-05-07T00:18:07;19.80;65.79
63976;DHT22;50167;47.958;21.780;2023-05-07T00:20:33;20.75;64.40
63976;DHT22;50167;47.958;21.780;2023-05-07T00:22:59;21.27;62.43
63976;DHT22;50167;47.958;21.780;2023-05-07T00:25:26;21.62;60.70
63976;DHT22;50167;47.958;21.780;2023-05-07T00:27:52;21.83;59.89
63976;DHT22;50167;47.958;21.780;2023-05-07T00:30:18;22.03;59.27
63976;DHT22;50167;47.958;21.780;2023-05-07T00:32:44;21.58;58.74
63976;DHT22;50167;47.958;21.780;2023-05-07T00:35:14;20.49;60.46
63976;DHT22;50167;47.958;21.780;2023-05-07T00:37:40;19.65;63.03
63976;DHT22;50167;47.958;21.780;2023-05-07T00:40:07;19.88;65.63
63976;DHT22;50167;47.958;21.780;2023-05-07T00:42:34;20.68;63.54
63976;DHT22;50167;47.958;21.780;2023-05-07T00:45:00;21.13;62.30
63976;DHT22;50167;47.958;21.780;2023-05-07T00:47:26;21.34;60.56
63976;DHT22;50167;47.958;21.780;2023-05-07T00:49:52;21.38;60.78
63976;DHT22;50167;47.958;21.780;2023-05-07T00:52:20;21.47;60.52
63976;DHT22;50167;47.958;21.780;2023-05-07T00:54:47;21.52;60.58
63976;DHT22;50167;47.958;21.780;2023-05-07T00:57:14;21.64;60.08
63976;DHT22;50167;47.958;21.780;2023-05-07T00:59:41;21.65;59.37
63976;DHT22;50167;47.958;21.780;2023-05-07T01:02:08;21.18;59.55
63976;DHT22;50167;47.958;21.780;2023-05-07T01:04:34;20.25;61.54
63976;DHT22;50167;47.958;21.780;2023-05-07T01:07:01;19.39;63.53
63976;DHT22;50167;47.958;21.780;2023-05-07T01:09:29;19.55;65.42
63976;DHT22;50167;47.958;21.780;2023-05-07T01:11:56;20.24;64.71
63976;DHT22;50167;47.958;21.780;2023-05-07T01:14:24;20.68;62.78
63976;DHT22;50167;47.958;21.780;2023-05-07T01:16:51;20.86;61.82
63976;DHT22;50167;47.958;21.780;2023-05-07T01:19:18;21.01;62.34
63976;DHT22;50167;47.958;21.780;2023-05-07T01:22:07;21.15;61.25
63976;DHT22;50167;47.958;21.780;2023-05-07T01:24:36;21.28;61.26
63976;DHT22;50167;47.958;21.780;2023-05-07T01:27:03;21.40;60.31
63976;DHT22;50167;47.958;21.780;2023-05-07T01:29:30;21.41;60.47
63976;DHT22;50167;47.958;21.780;2023-05-07T01:32:01;21.42;60.71
63976;DHT22;50167;47.958;21.780;2023-05-07T01:34:28;21.37;60.81
63976;DHT22;50167;47.958;21.780;2023-05-07T01:36:55;21.03;59.73
63976;DHT22;50167;47.958;21.780;2023-05-07T01:39:26;20.13;61.69
63976;DHT22;50167;47.958;21.780;2023-05-07T01:41:55;19.15;64.59
63976;DHT22;50167;47.958;21.780;2023-05-07T01:44:23;19.29;67.00
63976;DHT22;50167;47.958;21.780;2023-05-07T01:46:49;19.93;64.40
63976;DHT22;50167;47.958;21.780;2023-05-07T01:49:17;20.24;64.38
63976;DHT22;50167;47.958;21.780;2023-05-07T01:51:44;20.41;64.09
63976;DHT22;50167;47.958;21.780;2023-05-07T01:54:10;20.55;63.87
63976;DHT22;50167;47.958;21.780;2023-05-07T01:56:36;20.66;63.22
63976;DHT22;50167;47.958;21.780;2023-05-07T01:59:02;20.87;63.15
63976;DHT22;50167;47.958;21.780;2023-05-07T02:01:29;21.04;62.49
63976;DHT22;50167;47.958;21.780;2023-05-07T02:03:57;21.10;61.11
63976;DHT22;50167;47.958;21.780;2023-05-07T02:06:23;21.20;62.10
63976;DHT22;50167;47.958;21.780;2023-05-07T02:08:49;21.21;61.71
63976;DHT22;50167;47.958;21.780;2023-05-07T02:11:16;21.21;61.81
63976;DHT22;50167;47.958;21.780;2023-05-07T02:13:44;21.22;61.16
63976;DHT22;50167;47.958;21.780;2023-05-07T02:16:10;21.30;61.60
63976;DHT22;50167;47.958;21.780;2023-05-07T02:18:37;21.33;61.70
63976;DHT22;50167;47.958;21.780;2023-05-07T02:21:03;21.28;61.17
63976;DHT22;50167;47.958;21.780;2023-05-07T02:23:30;21.24;61.03
63976;DHT22;50167;47.958;21.780;2023-05-07T02:25:56;21.28;61.55
63976;DHT22;50167;47.958;21.780;2023-05-07T02:28:22;21.28;60.82
63976;DHT22;50167;47.958;21.780;2023-05-07T02:30:48;21.40;60.33
63976;DHT22;50167;47.958;21.780;2023-05-07T02:33:14;21.49;60.58
63976;DHT22;50167;47.958;21.780;2023-05-07T02:35:40;21.49;60.90
63976;DHT22;50167;47.958;21.780;2023-05-07T02:38:10;21.55;61.01
63976;DHT22;50167;47.958;21.780;2023-05-07T02:40:37;21.62;59.88
63976;DHT22;50167;47.958;21.780;2023-05-07T02:43:06;21.68;60.68
63976;DHT22;50167;47.958;21.780;2023-05-07T02:45:33;21.75;60.38
63976;DHT22;50167;47.958;21.780;2023-05-07T02:47:59;21.85;60.18
63976;DHT22;50167;47.958;21.780;2023-05-07T02:50:25;21.92;60.09
63976;DHT22;50167;47.958;21.780;2023-05-07T02:52:52;21.97;59.68
63976;DHT22;50167;47.958;21.780;2023-05-07T02:55:19;21.99;59.44
63976;DHT22;50167;47.958;21.780;2023-05-07T02:57:45;21.49;59.05
63976;DHT22;50167;47.958;21.780;2023-05-07T03:00:14;20.45;60.94
63976;DHT22;50167;47.958;21.780;2023-05-07T03:02:40;19.50;63.29
63976;DHT22;50167;47.958;21.780;2023-05-07T03:05:06;19.67;65.94
63976;DHT22;50167;47.958;21.780;2023-05-07T03:07:35;20.49;64.15
63976;DHT22;50167;47.958;21.780;2023-05-07T03:10:01;20.84;62.68
63976;DHT22;50167;47.958;21.780;2023-05-07T03:12:28;21.00;62.12
63976;DHT22;50167;47.958;21.780;2023-05-07T03:14:54;21.14;61.68
63976;DHT22;50167;47.958;21.780;2023-05-07T03:17:21;21.20;61.27
63976;DHT22;50167;47.958;21.780;2023-05-07T03:19:47;21.28;61.13
63976;DHT22;50167;47.958;21.780;2023-05-07T03:22:14;21.36;60.76
63976;DHT22;50167;47.958;21.780;2023-05-07T03:24:40;21.48;60.46
63976;DHT22;50167;47.958;21.780;2023-05-07T03:27:07;21.64;60.18
63976;DHT22;50167;47.958;21.780;2023-05-07T03:29:33;21.72;59.80
63976;DHT22;50167;47.958;21.780;2023-05-07T03:31:59;21.80;59.63
63976;DHT22;50167;47.958;21.780;2023-05-07T03:34:25;21.89;59.51
63976;DHT22;50167;47.958;21.780;2023-05-07T03:36:51;21.52;58.99
63976;DHT22;50167;47.958;21.780;2023-05-07T03:39:17;20.58;60.43
63976;DHT22;50167;47.958;21.780;2023-05-07T03:41:43;19.73;62.72
63976;DHT22;50167;47.958;21.780;2023-05-07T03:44:09;19.94;65.35
63976;DHT22;50167;47.958;21.780;2023-05-07T03:46:35;20.51;64.19
63976;DHT22;50167;47.958;21.780;2023-05-07T03:49:02;20.93;63.00
63976;DHT22;50167;47.958;21.780;2023-05-07T03:51:28;21.17;61.97
63976;DHT22;50167;47.958;21.780;2023-05-07T03:53:54;21.30;61.65
63976;DHT22;50167;47.958;21.780;2023-05-07T03:56:22;21.37;61.20
63976;DHT22;50167;47.958;21.780;2023-05-07T03:58:50;21.41;60.96
63976;DHT22;50167;47.958;21.780;2023-05-07T04:01:17;21.57;60.72
63976;DHT22;50167;47.958;21.780;2023-05-07T04:07:44;21.52;60.70
63976;DHT22;50167;47.958;21.780;2023-05-07T04:10:10;21.57;60.68
63976;DHT22;50167;47.958;21.780;2023-05-07T04:12:36;21.57;60.61
63976;DHT22;50167;47.958;21.780;2023-05-07T04:15:03;21.57;60.73
63976;DHT22;50167;47.958;21.780;2023-05-07T04:17:30;21.57;60.72
63976;DHT22;50167;47.958;21.780;2023-05-07T04:19:56;21.59;60.76
63976;DHT22;50167;47.958;21.780;2023-05-07T04:22:22;21.59;60.41
63976;DHT22;50167;47.958;21.780;2023-05-07T04:24:48;21.64;60.49
63976;DHT22;50167;47.958;21.780;2023-05-07T04:27:15;21.62;60.51
63976;DHT22;50167;47.958;21.780;2023-05-07T04:29:41;21.52;60.92
63976;DHT22;50167;47.958;21.780;2023-05-07T04:32:09;21.52;61.08
63976;DHT22;50167;47.958;21.780;2023-05-07T04:34:35;21.49;60.76
63976;DHT22;50167;47.958;21.780;2023-05-07T04:37:01;21.47;61.16
63976;DHT22;50167;47.958;21.780;2023-05-07T04:39:27;21.48;61.02
63976;DHT22;50167;47.958;21.780;2023-05-07T04:41:54;21.48;60.98
63976;DHT22;50167;47.958;21.780;2023-05-07T04:44:20;21.58;61.28
63976;DHT22;50167;47.958;21.780;2023-05-07T04:46:46;21.70;61.09
63976;DHT22;50167;47.958;21.780;2023-05-07T04:49:12;21.78;60.68
63976;DHT22;50167;47.958;21.780;2023-05-07T04:51:38;21.78;60.84
63976;DHT22;50167;47.958;21.780;2023-05-07T04:54:06;21.79;60.78
63976;DHT22;50167;47.958;21.780;2023-05-07T04:56:33;21.83;60.70
63976;DHT22;50167;47.958;21.780;2023-05-07T04:58:59;21.86;61.15
63976;DHT22;50167;47.958;21.780;2023-05-07T05:01:25;21.99;60.97
63976;DHT22;50167;47.958;21.780;2023-05-07T05:03:51;22.24;60.47
63976;DHT22;50167;47.958;21.780;2023-05-07T05:06:17;22.48;60.04
63976;DHT22;50167;47.958;21.780;2023-05-07T05:08:43;22.62;59.67
63976;DHT22;50167;47.958;21.780;2023-05-07T05:11:09;22.67;59.50
63976;DHT22;50167;47.958;21.780;2023-05-07T05:13:35;22.23;59.33
63976;DHT22;50167;47.958;21.780;2023-05-07T05:16:02;21.28;61.06
63976;DHT22;50167;47.958;21.780;2023-05-07T05:18:28;20.48;63.72
63976;DHT22;50167;47.958;21.780;2023-05-07T05:20:54;20.59;65.61
63976;DHT22;50167;47.958;21.780;2023-05-07T05:23:21;21.40;63.82
63976;DHT22;50167;47.958;21.780;2023-05-07T05:25:48;21.88;62.66
63976;DHT22;50167;47.958;21.780;2023-05-07T05:28:14;22.19;61.70
63976;DHT22;50167;47.958;21.780;2023-05-07T05:30:40;22.38;60.92
63976;DHT22;50167;47.958;21.780;2023-05-07T05:33:06;22.64;59.80
63976;DHT22;50167;47.958;21.780;2023-05-07T05:35:32;22.75;58.76
63976;DHT22;50167;47.958;21.780;2023-05-07T05:37:58;22.20;59.39
63976;DHT22;50167;47.958;21.780;2023-05-07T05:40:27;21.30;61.56
63976;DHT22;50167;47.958;21.780;2023-05-07T05:42:53;20.58;63.35
63976;DHT22;50167;47.958;21.780;2023-05-07T05:45:19;20.79;64.88
63976;DHT22;50167;47.958;21.780;2023-05-07T05:47:45;21.59;63.13
63976;DHT22;50167;47.958;21.780;2023-05-07T05:50:11;21.99;61.57
63976;DHT22;50167;47.958;21.780;2023-05-07T05:52:38;22.34;60.67
63976;DHT22;50167;47.958;21.780;2023-05-07T05:55:05;22.67;59.34
63976;DHT22;50167;47.958;21.780;2023-05-07T05:57:32;22.34;58.31
63976;DHT22;50167;47.958;21.780;2023-05-07T05:59:58;21.62;60.55
63976;DHT22;50167;47.958;21.780;2023-05-07T06:02:24;20.99;61.22
63976;DHT22;50167;47.958;21.780;2023-05-07T06:04:50;20.69;63.43
63976;DHT22;50167;47.958;21.780;2023-05-07T06:07:17;21.40;61.39
63976;DHT22;50167;47.958;21.780;2023-05-07T06:09:43;22.06;58.81
63976;DHT22;50167;47.958;21.780;2023-05-07T06:12:09;22.00;57.31
63976;DHT22;50167;47.958;21.780;2023-05-07T06:14:35;21.34;59.60
63976;DHT22;50167;47.958;21.780;2023-05-07T06:17:01;20.82;60.27
63976;DHT22;50167;47.958;21.780;2023-05-07T06:19:28;20.55;61.84
63976;DHT22;50167;47.958;21.780;2023-05-07T06:21:54;21.37;59.91
63976;DHT22;50167;47.958;21.780;2023-05-07T06:24:22;21.69;58.67
63976;DHT22;50167;47.958;21.780;2023-05-07T06:26:48;21.21;59.47
63976;DHT22;50167;47.958;21.780;2023-05-07T06:29:15;20.68;60.33
63976;DHT22;50167;47.958;21.780;2023-05-07T06:31:41;20.25;61.67
63976;DHT22;50167;47.958;21.780;2023-05-07T06:34:07;19.96;61.80
63976;DHT22;50167;47.958;21.780;2023-05-07T06:36:34;19.81;63.00
63976;DHT22;50167;47.958;21.780;2023-05-07T06:39:00;20.83;61.11
63976;DHT22;50167;47.958;21.780;2023-05-07T06:41:27;21.70;58.43
63976;DHT22;50167;47.958;21.780;2023-05-07T06:43:53;21.70;57.36
63976;DHT22;50167;47.958;21.780;2023-05-07T06:46:19;20.97;58.50
63976;DHT22;50167;47.958;21.780;2023-05-07T06:48:45;20.34;59.98
63976;DHT22;50167;47.958;21.780;2023-05-07T06:51:11;19.84;61.37
63976;DHT22;50167;47.958;21.780;2023-05-07T06:53:37;19.50;62.08
63976;DHT22;50167;47.958;21.780;2023-05-07T06:56:04;19.36;63.28
63976;DHT22;50167;47.958;21.780;2023-05-07T06:58:30;20.27;63.40
63976;DHT22;50167;47.958;21.780;2023-05-07T07:00:56;21.66;60.09
63976;DHT22;50167;47.958;21.780;2023-05-07T07:03:22;22.60;57.37
63976;DHT22;50167;47.958;21.780;2023-05-07T07:05:54;22.52;55.69
63976;DHT22;50167;47.958;21.780;2023-05-07T07:08:21;21.85;56.48
63976;DHT22;50167;47.958;21.780;2023-05-07T07:10:48;21.31;58.51
63976;DHT22;50167;47.958;21.780;2023-05-07T07:13:14;20.86;59.07
63976;DHT22;50167;47.958;21.780;2023-05-07T07:15:41;20.45;60.33
63976;DHT22;50167;47.958;21.780;2023-05-07T07:18:07;20.10;61.59
63976;DHT22;50167;47.958;21.780;2023-05-07T07:20:33;19.83;62.68
63976;DHT22;50167;47.958;21.780;2023-05-07T07:22:59;20.42;61.98
63976;DHT22;50167;47.958;21.780;2023-05-07T07:25:26;21.40;59.08
63976;DHT22;50167;47.958;21.780;2023-05-07T07:27:52;21.41;58.09
63976;DHT22;50167;47.958;21.780;2023-05-07T07:30:20;20.80;59.37
63976;DHT22;50167;47.958;21.780;2023-05-07T07:32:46;20.21;61.16
63976;DHT22;50167;47.958;21.780;2023-05-07T07:35:14;19.77;62.66
63976;DHT22;50167;47.958;21.780;2023-05-07T07:37:41;20.27;62.42
63976;DHT22;50167;47.958;21.780;2023-05-07T07:40:08;21.30;59.67
63976;DHT22;50167;47.958;21.780;2023-05-07T07:42:35;21.34;57.97
63976;DHT22;50167;47.958;21.780;2023-05-07T07:45:01;20.60;59.25
63976;DHT22;50167;47.958;21.780;2023-05-07T07:47:27;19.94;60.92
63976;DHT22;50167;47.958;21.780;2023-05-07T07:49:53;19.48;62.62
63976;DHT22;50167;47.958;21.780;2023-05-07T07:52:19;20.01;62.79
63976;DHT22;50167;47.958;21.780;2023-05-07T07:54:45;20.97;60.61
63976;DHT22;50167;47.958;21.780;2023-05-07T07:57:11;21.57;59.10
63976;DHT22;50167;47.958;21.780;2023-05-07T07:59:38;21.48;57.72
63976;DHT22;50167;47.958;21.780;2023-05-07T08:02:05;20.75;58.21
63976;DHT22;50167;47.958;21.780;2023-05-07T08:04:33;20.20;59.61
63976;DHT22;50167;47.958;21.780;2023-05-07T08:06:59;19.94;61.00
63976;DHT22;50167;47.958;21.780;2023-05-07T08:09:25;19.86;62.04
63976;DHT22;50167;47.958;21.780;2023-05-07T08:11:51;19.87;62.67
63976;DHT22;50167;47.958;21.780;2023-05-07T08:14:18;20.71;61.19
63976;DHT22;50167;47.958;21.780;2023-05-07T08:16:44;21.92;58.78
63976;DHT22;50167;47.958;21.780;2023-05-07T08:19:17;22.23;57.55
63976;DHT22;50167;47.958;21.780;2023-05-07T08:21:43;21.73;57.93
63976;DHT22;50167;47.958;21.780;2023-05-07T08:24:17;21.42;58.84
63976;DHT22;50167;47.958;21.780;2023-05-07T08:26:44;21.25;59.72
63976;DHT22;50167;47.958;21.780;2023-05-07T08:29:10;21.06;60.07
63976;DHT22;50167;47.958;21.780;2023-05-07T08:31:37;21.04;61.72
63976;DHT22;50167;47.958;21.780;2023-05-07T08:34:08;21.27;61.27
63976;DHT22;50167;47.958;21.780;2023-05-07T08:36:34;21.48;61.29
63976;DHT22;50167;47.958;21.780;2023-05-07T08:39:00;21.72;61.15
63976;DHT22;50167;47.958;21.780;2023-05-07T08:41:27;21.79;59.91
63976;DHT22;50167;47.958;21.780;2023-05-07T08:43:55;21.75;58.74
63976;DHT22;50167;47.958;21.780;2023-05-07T08:46:22;21.70;59.21
63976;DHT22;50167;47.958;21.780;2023-05-07T08:48:50;21.76;58.77
63976;DHT22;50167;47.958;21.780;2023-05-07T08:51:20;21.91;58.99
63976;DHT22;50167;47.958;21.780;2023-05-07T08:53:48;22.02;58.16
63976;DHT22;50167;47.958;21.780;2023-05-07T08:56:16;22.12;58.99
63976;DHT22;50167;47.958;21.780;2023-05-07T08:58:44;22.20;57.46
63976;DHT22;50167;47.958;21.780;2023-05-07T09:01:16;22.21;56.92
63976;DHT22;50167;47.958;21.780;2023-05-07T09:03:46;22.50;56.13
63976;DHT22;50167;47.958;21.780;2023-05-07T09:06:12;22.70;55.63
63976;DHT22;50167;47.958;21.780;2023-05-07T09:08:39;22.75;56.69
63976;DHT22;50167;47.958;21.780;2023-05-07T09:11:05;22.83;56.86
63976;DHT22;50167;47.958;21.780;2023-05-07T09:13:31;22.79;56.73
63976;DHT22;50167;47.958;21.780;2023-05-07T09:16:01;22.79;56.78
63976;DHT22;50167;47.958;21.780;2023-05-07T09:18:27;22.76;56.71
63976;DHT22;50167;47.958;21.780;2023-05-07T09:20:54;22.75;56.93
63976;DHT22;50167;47.958;21.780;2023-05-07T09:23:21;22.70;56.77
63976;DHT22;50167;47.958;21.780;2023-05-07T09:25:47;22.58;57.38
63976;DHT22;50167;47.958;21.780;2023-05-07T09:28:13;22.74;57.25
63976;DHT22;50167;47.958;21.780;2023-05-07T09:30:40;22.85;55.25
63976;DHT22;50167;47.958;21.780;2023-05-07T09:33:06;22.89;54.16
63976;DHT22;50167;47.958;21.780;2023-05-07T09:35:32;22.91;56.01
63976;DHT22;50167;47.958;21.780;2023-05-07T09:38:00;22.82;56.95
63976;DHT22;50167;47.958;21.780;2023-05-07T09:40:29;22.67;56.68
63976;DHT22;50167;47.958;21.780;2023-05-07T09:42:56;22.40;55.60
63976;DHT22;50167;47.958;21.780;2023-05-07T09:45:29;22.05;56.80
63976;DHT22;50167;47.958;21.780;2023-05-07T09:47:57;21.85;58.34
63976;DHT22;50167;47.958;21.780;2023-05-07T09:50:29;21.80;58.80
63976;DHT22;50167;47.958;21.780;2023-05-07T09:52:56;21.92;57.98
63976;DHT22;50167;47.958;21.780;2023-05-07T09:55:23;22.02;57.87
63976;DHT22;50167;47.958;21.780;2023-05-07T09:57:51;22.24;58.49
63976;DHT22;50167;47.958;21.780;2023-05-07T10:00:20;22.45;55.87
63976;DHT22;50167;47.958;21.780;2023-05-07T10:02:52;22.41;56.58
63976;DHT22;50167;47.958;21.780;2023-05-07T10:05:19;22.48;56.67
63976;DHT22;50167;47.958;21.780;2023-05-07T10:07:49;22.61;55.72
63976;DHT22;50167;47.958;21.780;2023-05-07T10:10:17;22.75;56.13
63976;DHT22;50167;47.958;21.780;2023-05-07T10:12:45;22.91;55.10
63976;DHT22;50167;47.958;21.780;2023-05-07T10:15:12;23.02;53.48
63976;DHT22;50167;47.958;21.780;2023-05-07T10:17:41;23.13;54.01
63976;DHT22;50167;47.958;21.780;2023-05-07T10:20:08;23.34;54.48
63976;DHT22;50167;47.958;21.780;2023-05-07T10:22:41;23.53;53.23
63976;DHT22;50167;47.958;21.780;2023-05-07T10:25:23;23.77;54.16
63976;DHT22;50167;47.958;21.780;2023-05-07T10:27:50;23.98;52.91
63976;DHT22;50167;47.958;21.780;2023-05-07T10:30:53;24.06;52.10
63976;DHT22;50167;47.958;21.780;2023-05-07T10:33:17;24.12;51.90
63976;DHT22;50167;47.958;21.780;2023-05-07T10:35:46;24.12;50.64
63976;DHT22;50167;47.958;21.780;2023-05-07T10:38:13;24.15;50.74
63976;DHT22;50167;47.958;21.780;2023-05-07T10:40:40;24.06;51.21
63976;DHT22;50167;47.958;21.780;2023-05-07T10:43:06;23.94;51.67
63976;DHT22;50167;47.958;21.780;2023-05-07T10:45:33;23.83;51.67
63976;DHT22;50167;47.958;21.780;2023-05-07T10:48:14;23.84;51.19
63976;DHT22;50167;47.958;21.780;2023-05-07T10:50:42;24.02;50.94
63976;DHT22;50167;47.958;21.780;2023-05-07T10:53:21;23.96;49.94
63976;DHT22;50167;47.958;21.780;2023-05-07T10:58:47;23.61;50.50
63976;DHT22;50167;47.958;21.780;2023-05-07T11:01:13;23.50;51.75
63976;DHT22;50167;47.958;21.780;2023-05-07T11:04:14;23.53;51.71
63976;DHT22;50167;47.958;21.780;2023-05-07T11:15:11;23.67;50.79
63976;DHT22;50167;47.958;21.780;2023-05-07T11:17:58;23.77;50.72
63976;DHT22;50167;47.958;21.780;2023-05-07T11:20:57;23.84;50.40
63976;DHT22;50167;47.958;21.780;2023-05-07T11:26:10;24.06;50.71
63976;DHT22;50167;47.958;21.780;2023-05-07T11:28:43;24.16;49.52
63976;DHT22;50167;47.958;21.780;2023-05-07T11:31:11;24.17;48.99
63976;DHT22;50167;47.958;21.780;2023-05-07T11:33:38;24.17;48.46
63976;DHT22;50167;47.958;21.780;2023-05-07T11:36:05;24.20;49.09
63976;DHT22;50167;47.958;21.780;2023-05-07T11:38:37;24.39;48.56
63976;DHT22;50167;47.958;21.780;2023-05-07T11:41:04;24.53;47.75
63976;DHT22;50167;47.958;21.780;2023-05-07T11:43:32;24.61;48.47
63976;DHT22;50167;47.958;21.780;2023-05-07T11:46:10;24.77;47.49
63976;DHT22;50167;47.958;21.780;2023-05-07T11:48:37;24.98;48.06
63976;DHT22;50167;47.958;21.780;2023-05-07T11:51:06;25.11;46.62
63976;DHT22;50167;47.958;21.780;2023-05-07T11:53:42;25.28;47.10
63976;DHT22;50167;47.958;21.780;2023-05-07T11:56:15;25.29;45.02
63976;DHT22;50167;47.958;21.780;2023-05-07T11:58:43;25.29;45.43
63976;DHT22;50167;47.958;21.780;2023-05-07T12:01:12;25.36;45.52
63976;DHT22;50167;47.958;21.780;2023-05-07T12:03:43;25.36;44.97
63976;DHT22;50167;47.958;21.780;2023-05-07T12:06:14;25.40;45.38
63976;DHT22;50167;47.958;21.780;2023-05-07T12:08:42;25.29;43.58
63976;DHT22;50167;47.958;21.780;2023-05-07T12:11:15;25.14;43.92
63976;DHT22;50167;47.958;21.780;2023-05-07T12:13:40;25.17;44.32
63976;DHT22;50167;47.958;21.780;2023-05-07T12:16:07;25.23;44.03
63976;DHT22;50167;47.958;21.780;2023-05-07T12:18:35;25.32;43.34
63976;DHT22;50167;47.958;21.780;2023-05-07T12:21:03;25.38;43.60
63976;DHT22;50167;47.958;21.780;2023-05-07T12:23:30;25.36;43.45
63976;DHT22;50167;47.958;21.780;2023-05-07T12:25:57;25.25;44.20
63976;DHT22;50167;47.958;21.780;2023-05-07T12:28:23;25.25;43.93
63976;DHT22;50167;47.958;21.780;2023-05-07T12:30:50;25.29;43.40
63976;DHT22;50167;47.958;21.780;2023-05-07T12:33:25;25.40;43.22
63976;DHT22;50167;47.958;21.780;2023-05-07T12:35:54;25.72;41.44
63976;DHT22;50167;47.958;21.780;2023-05-07T12:38:21;26.21;41.22
63976;DHT22;50167;47.958;21.780;2023-05-07T12:40:50;26.80;39.42
63976;DHT22;50167;47.958;21.780;2023-05-07T12:43:28;27.37;37.56
63976;DHT22;50167;47.958;21.780;2023-05-07T12:45:58;27.86;37.67
63976;DHT22;50167;47.958;21.780;2023-05-07T12:48:27;28.17;36.68
63976;DHT22;50167;47.958;21.780;2023-05-07T12:50:54;28.51;37.29
63976;DHT22;50167;47.958;21.780;2023-05-07T12:53:23;28.95;36.11
63976;DHT22;50167;47.958;21.780;2023-05-07T12:55:56;29.63;36.04
63976;DHT22;50167;47.958;21.780;2023-05-07T12:58:30;30.44;35.72
63976;DHT22;50167;47.958;21.780;2023-05-07T13:00:59;31.08;34.57
63976;DHT22;50167;47.958;21.780;2023-05-07T13:03:31;31.22;32.65
63976;DHT22;50167;47.958;21.780;2023-05-07T13:06:02;31.36;33.73
63976;DHT22;50167;47.958;21.780;2023-05-07T13:08:34;31.62;33.12
63976;DHT22;50167;47.958;21.780;2023-05-07T13:11:03;31.87;32.46
63976;DHT22;50167;47.958;21.780;2023-05-07T13:13:35;31.94;31.79
63976;DHT22;50167;47.958;21.780;2023-05-07T13:16:03;31.90;31.18
63976;DHT22;50167;47.958;21.780;2023-05-07T13:18:32;31.70;31.02
63976;DHT22;50167;47.958;21.780;2023-05-07T13:20:59;31.46;31.42
63976;DHT22;50167;47.958;21.780;2023-05-07T13:23:26;31.22;31.29
63976;DHT22;50167;47.958;21.780;2023-05-07T13:25:53;30.94;31.27
63976;DHT22;50167;47.958;21.780;2023-05-07T13:28:24;30.74;31.40
63976;DHT22;50167;47.958;21.780;2023-05-07T13:30:53;30.60;31.86
63976;DHT22;50167;47.958;21.780;2023-05-07T13:33:20;30.20;30.72
63976;DHT22;50167;47.958;21.780;2023-05-07T13:35:46;29.63;31.50
63976;DHT22;50167;47.958;21.780;2023-05-07T13:38:12;29.16;31.91
63976;DHT22;50167;47.958;21.780;2023-05-07T13:40:38;28.20;32.38
63976;DHT22;50167;47.958;21.780;2023-05-07T13:43:05;27.03;33.43
63976;DHT22;50167;47.958;21.780;2023-05-07T13:45:32;26.49;34.87
63976;DHT22;50167;47.958;21.780;2023-05-07T13:47:58;26.36;35.25
63976;DHT22;50167;47.958;21.780;2023-05-07T13:50:24;26.48;35.51
63976;DHT22;50167;47.958;21.780;2023-05-07T13:52:52;26.76;34.73
63976;DHT22;50167;47.958;21.780;2023-05-07T13:55:20;27.00;34.03
63976;DHT22;50167;47.958;21.780;2023-05-07T13:57:47;27.06;34.19
63976;DHT22;50167;47.958;21.780;2023-05-07T14:00:14;27.28;34.09
63976;DHT22;50167;47.958;21.780;2023-05-07T14:02:42;27.62;33.09
63976;DHT22;50167;47.958;21.780;2023-05-07T14:05:09;27.72;31.69
63976;DHT22;50167;47.958;21.780;2023-05-07T14:07:35;27.64;31.71
63976;DHT22;50167;47.958;21.780;2023-05-07T14:10:02;27.58;33.06
63976;DHT22;50167;47.958;21.780;2023-05-07T14:12:28;27.75;32.33
63976;DHT22;50167;47.958;21.780;2023-05-07T14:14:54;28.04;32.24
63976;DHT22;50167;47.958;21.780;2023-05-07T14:17:22;28.17;31.33
63976;DHT22;50167;47.958;21.780;2023-05-07T14:19:50;27.21;31.39
63976;DHT22;50167;47.958;21.780;2023-05-07T14:22:16;25.72;33.46
63976;DHT22;50167;47.958;21.780;2023-05-07T14:24:42;24.52;35.06
63976;DHT22;50167;47.958;21.780;2023-05-07T14:27:08;23.48;35.83
63976;DHT22;50167;47.958;21.780;2023-05-07T14:29:35;22.55;37.89
63976;DHT22;50167;47.958;21.780;2023-05-07T14:32:02;21.83;38.45
63976;DHT22;50167;47.958;21.780;2023-05-07T14:34:29;21.27;39.83
63976;DHT22;50167;47.958;21.780;2023-05-07T14:36:55;20.69;40.89
63976;DHT22;50167;47.958;21.780;2023-05-07T14:39:21;20.23;42.06
63976;DHT22;50167;47.958;21.780;2023-05-07T14:41:47;19.81;43.28
63976;DHT22;50167;47.958;21.780;2023-05-07T14:44:13;19.35;44.20
63976;DHT22;50167;47.958;21.780;2023-05-07T14:46:39;18.87;45.39
63976;DHT22;50167;47.958;21.780;2023-05-07T14:49:06;18.53;46.13
63976;DHT22;50167;47.958;21.780;2023-05-07T14:51:34;18.19;47.01
63976;DHT22;50167;47.958;21.780;2023-05-07T14:54:00;18.04;47.40
63976;DHT22;50167;47.958;21.780;2023-05-07T14:56:27;17.94;48.16
63976;DHT22;50167;47.958;21.780;2023-05-07T14:58:53;17.88;48.56
63976;DHT22;50167;47.958;21.780;2023-05-07T15:01:20;17.85;47.98
63976;DHT22;50167;47.958;21.780;2023-05-07T15:03:50;17.80;48.15
63976;DHT22;50167;47.958;21.780;2023-05-07T15:06:15;17.76;48.54
63976;DHT22;50167;47.958;21.780;2023-05-07T15:08:41;17.72;48.41
63976;DHT22;50167;47.958;21.780;2023-05-07T15:11:07;17.62;48.17
63976;DHT22;50167;47.958;21.780;2023-05-07T15:13:35;17.47;47.94
63976;DHT22;50167;47.958;21.780;2023-05-07T15:16:01;17.36;48.22
63976;DHT22;50167;47.958;21.780;2023-05-07T15:18:27;17.30;48.63
63976;DHT22;50167;47.958;21.780;2023-05-07T15:20:55;17.37;48.88
63976;DHT22;50167;47.958;21.780;2023-05-07T15:23:22;17.70;48.77
63976;DHT22;50167;47.958;21.780;2023-05-07T15:25:48;18.16;47.15
63976;DHT22;50167;47.958;21.780;2023-05-07T15:28:14;18.25;46.73
63976;DHT22;50167;47.958;21.780;2023-05-07T15:30:42;18.31;47.13
63976;DHT22;50167;47.958;21.780;2023-05-07T15:33:08;18.55;46.71
63976;DHT22;50167;47.958;21.780;2023-05-07T15:35:34;18.74;46.81